Time;durP1;ratioP1;P1;durP2;ratioP2;P2;SDS_P1;SDS_P2;PMS_P1;PMS_P2;Temp;Humidity;BMP_temperature;BMP_pressure;BME280_temperature;BME280_humidity;BME280_pressure;Samples;Min_cycle;Max_cycle;Signal;HPM_P1;HPM_P2
2022/08/26 00:02:24;;;;;;;18.63;11.20;;;20.70;83.60;;;;;;4913911;29;20052;-67
2022/08/26 00:04:50;;;;;;;21.80;12.13;;;20.70;83.60;;;;;;4928766;29;20055;-68
2022/08/26 00:07:16;;;;;;;21.57;11.20;;;20.70;83.30;;;;;;4933993;29;20047;-68
2022/08/26 00:09:41;;;;;;;18.93;10.73;;;20.70;83.20;;;;;;4901987;29;20046;-68
2022/08/26 00:12:08;;;;;;;19.80;10.63;;;20.70;83.30;;;;;;4919049;29;20051;-68
2022/08/26 00:14:34;;;;;;;21.57;11.00;;;20.70;83.70;;;;;;4932297;29;20055;-68
2022/08/26 00:16:59;;;;;;;16.93;10.80;;;20.70;83.40;;;;;;4932914;29;20039;-68
2022/08/26 00:19:25;;;;;;;19.93;11.23;;;20.70;83.30;;;;;;4898622;29;20380;-69
2022/08/26 00:21:51;;;;;;;19.20;11.13;;;20.70;83.20;;;;;;4936236;29;20051;-69
2022/08/26 00:24:19;;;;;;;17.70;10.33;;;20.70;82.90;;;;;;4920050;29;20051;-68
2022/08/26 00:26:45;;;;;;;19.17;9.73;;;20.60;83.00;;;;;;4916642;29;20032;-68
2022/08/26 00:29:11;;;;;;;19.10;9.00;;;20.60;82.90;;;;;;4916758;29;20110;-68
2022/08/26 00:31:37;;;;;;;17.90;9.90;;;20.60;83.10;;;;;;4931546;29;20032;-68
2022/08/26 00:34:03;;;;;;;13.43;8.37;;;20.50;82.90;;;;;;4916567;29;20050;-67
2022/08/26 00:36:29;;;;;;;16.60;8.03;;;20.50;83.00;;;;;;4916313;29;20047;-67
2022/08/26 00:38:54;;;;;;;15.73;8.10;;;20.50;83.10;;;;;;4911117;29;20036;-67
2022/08/26 00:41:20;;;;;;;11.97;7.20;;;20.50;83.00;;;;;;4924248;29;20054;-68
2022/08/26 00:43:46;;;;;;;15.07;7.47;;;20.60;83.00;;;;;;4897164;29;20513;-68
2022/08/26 00:46:32;;;;;;;13.80;7.40;;;20.50;83.20;;;;;;4925962;29;20043;-68
2022/08/26 00:49:08;;;;;;;14.40;6.30;;;20.50;83.40;;;;;;4924248;29;20500;-68
2022/08/26 00:51:42;;;;;;;16.10;7.00;;;20.50;83.10;;;;;;4899924;29;20126;-68
2022/08/26 00:54:09;;;;;;;9.27;5.55;;;20.50;82.90;;;;;;4923549;29;20055;-68
2022/08/26 00:57:06;;;;;;;13.20;5.77;;;20.50;83.20;;;;;;4925957;29;20071;-67
2022/08/26 00:59:33;;;;;;;10.97;5.30;;;20.50;83.10;;;;;;4923753;29;20050;-67
2022/08/26 01:01:59;;;;;;;10.57;4.27;;;20.40;83.10;;;;;;4918227;29;20417;-68
2022/08/26 01:04:26;;;;;;;7.87;3.97;;;20.40;82.80;;;;;;4934931;29;20072;-68
2022/08/26 01:06:53;;;;;;;7.83;3.40;;;20.40;82.80;;;;;;4920941;29;20063;-68
2022/08/26 01:09:20;;;;;;;7.77;2.93;;;20.40;82.50;;;;;;4915556;29;20048;-67
2022/08/26 01:11:49;;;;;;;11.37;3.80;;;20.40;82.50;;;;;;4899552;29;20036;-68
2022/08/26 01:14:17;;;;;;;8.00;3.23;;;20.30;82.60;;;;;;4931724;29;20071;-68
2022/08/26 01:16:43;;;;;;;11.73;2.87;;;20.30;82.60;;;;;;4924942;29;20137;-68
2022/08/26 01:19:27;;;;;;;6.40;2.60;;;20.30;82.60;;;;;;4888954;29;20529;-68
2022/08/26 01:22:05;;;;;;;10.03;2.33;;;20.20;83.00;;;;;;4938014;29;20039;-68
2022/08/26 01:24:31;;;;;;;8.77;2.80;;;20.10;83.00;;;;;;4905555;29;20040;-68
2022/08/26 01:27:03;;;;;;;5.07;1.80;;;20.10;82.90;;;;;;4926151;29;20051;-68
2022/08/26 01:29:31;;;;;;;8.17;2.20;;;20.00;83.00;;;;;;4923247;29;20044;-67
2022/08/26 01:31:57;;;;;;;9.27;2.37;;;20.00;83.00;;;;;;4898976;29;20298;-67
2022/08/26 01:34:27;;;;;;;8.60;1.63;;;19.90;83.30;;;;;;4936013;29;20347;-67
2022/08/26 01:37:03;;;;;;;8.40;2.07;;;19.90;83.40;;;;;;4923630;29;20291;-68
2022/08/26 01:39:31;;;;;;;7.93;1.40;;;19.80;83.40;;;;;;4934242;29;20291;-68
2022/08/26 01:41:59;;;;;;;7.77;1.80;;;19.80;83.60;;;;;;4936097;29;20374;-66
2022/08/26 01:44:27;;;;;;;9.53;2.30;;;19.70;83.70;;;;;;4908007;29;20818;-65
2022/08/26 01:46:55;;;;;;;10.50;2.20;;;19.70;83.80;;;;;;4918703;29;20298;-65
2022/08/26 01:49:23;;;;;;;6.77;1.50;;;19.70;83.70;;;;;;4916148;29;20304;-65
2022/08/26 01:51:52;;;;;;;7.80;2.33;;;19.60;84.00;;;;;;4904779;29;20347;-65
2022/08/26 01:54:17;;;;;;;10.67;1.63;;;19.60;84.00;;;;;;4930292;29;20323;-65
2022/08/26 01:56:44;;;;;;;6.57;1.30;;;19.60;83.90;;;;;;4910014;29;20339;-67
2022/08/26 01:59:13;;;;;;;8.40;1.37;;;19.60;84.00;;;;;;4897432;29;20043;-67
2022/08/26 02:01:39;;;;;;;11.50;1.37;;;19.50;84.20;;;;;;4934534;29;20402;-67
2022/08/26 02:04:24;;;;;;;6.33;1.67;;;19.50;84.00;;;;;;4919476;29;20370;-67
2022/08/26 02:06:50;;;;;;;5.50;0.80;;;19.40;84.20;;;;;;4935348;29;20040;-67
2022/08/26 02:09:19;;;;;;;7.20;1.70;;;19.30;83.80;;;;;;4918809;29;20469;-67
2022/08/26 02:11:45;;;;;;;4.67;1.00;;;19.30;83.70;;;;;;4933953;29;20403;-67
2022/08/26 02:14:15;;;;;;;13.77;1.20;;;19.30;83.70;;;;;;4931000;29;20437;-67
2022/08/26 02:16:44;;;;;;;4.80;0.83;;;19.30;83.90;;;;;;4935662;29;20377;-67
2022/08/26 02:19:16;;;;;;;4.00;0.70;;;19.20;84.20;;;;;;4932851;29;20672;-67
2022/08/26 02:21:44;;;;;;;5.33;0.93;;;19.20;84.40;;;;;;4936909;29;20303;-67
2022/08/26 02:24:13;;;;;;;3.63;0.90;;;19.20;84.00;;;;;;4913309;29;20634;-67
2022/08/26 02:26:40;;;;;;;5.07;0.93;;;19.10;84.20;;;;;;4932692;29;20769;-68
2022/08/26 02:29:25;;;;;;;5.93;1.00;;;19.10;84.00;;;;;;4896942;29;20727;-68
2022/08/26 02:31:52;;;;;;;6.78;1.05;;;19.10;84.40;;;;;;4925857;29;20648;-68
2022/08/26 02:34:33;;;;;;;4.87;0.90;;;19.10;84.30;;;;;;4906786;29;20497;-68
2022/08/26 02:37:02;;;;;;;6.27;1.00;;;19.20;84.40;;;;;;4934862;29;20676;-68
2022/08/26 02:39:29;;;;;;;5.80;1.00;;;19.20;84.70;;;;;;4912678;29;20296;-69
2022/08/26 02:41:56;;;;;;;5.17;0.87;;;19.20;84.70;;;;;;4918303;29;20316;-68
2022/08/26 02:44:22;;;;;;;6.67;1.27;;;19.30;85.00;;;;;;4923938;29;20343;-68
2022/08/26 02:46:48;;;;;;;5.77;1.27;;;19.30;84.60;;;;;;4894877;29;20334;-69
2022/08/26 02:49:18;;;;;;;5.83;1.07;;;19.30;84.60;;;;;;4912823;29;20127;-69
2022/08/26 02:51:44;;;;;;;7.90;1.10;;;19.40;84.50;;;;;;4921784;29;20172;-69
2022/08/26 02:54:10;;;;;;;5.10;1.30;;;19.40;84.60;;;;;;4933564;29;20315;-69
2022/08/26 02:56:35;;;;;;;7.60;1.10;;;19.50;84.80;;;;;;4936604;29;20314;-69
2022/08/26 02:59:01;;;;;;;9.50;1.30;;;19.50;84.90;;;;;;4910174;29;20061;-69
2022/08/26 03:01:31;;;;;;;10.40;1.30;;;19.50;84.90;;;;;;4935029;29;20057;-69
2022/08/26 03:03:58;;;;;;;8.47;1.10;;;19.50;84.90;;;;;;4906808;29;20111;-69
2022/08/26 03:06:23;;;;;;;7.70;0.93;;;19.50;84.80;;;;;;4947959;28;20800;-69
2022/08/26 03:08:50;;;;;;;9.07;1.53;;;19.50;84.50;;;;;;4931583;29;20303;-69
2022/08/26 03:11:17;;;;;;;9.00;1.13;;;19.50;84.20;;;;;;4936336;29;20507;-69
2022/08/26 03:13:44;;;;;;;10.10;1.73;;;19.50;83.90;;;;;;4906158;29;20653;-69
2022/08/26 03:16:10;;;;;;;6.03;1.00;;;19.60;83.70;;;;;;4920228;29;20283;-69
2022/08/26 03:18:36;;;;;;;6.07;1.10;;;19.60;83.60;;;;;;4920004;29;20296;-69
2022/08/26 03:21:13;;;;;;;7.07;0.90;;;19.60;83.80;;;;;;4914854;29;20314;-69
2022/08/26 03:23:41;;;;;;;9.80;1.73;;;19.60;83.40;;;;;;4904910;29;20356;-69
2022/08/26 03:26:09;;;;;;;7.30;1.30;;;19.60;83.50;;;;;;4929359;29;20040;-69
2022/08/26 03:28:35;;;;;;;8.50;1.17;;;19.60;83.30;;;;;;4927357;29;20335;-69
2022/08/26 03:31:01;;;;;;;12.13;1.73;;;19.60;83.20;;;;;;4938671;29;20895;-69
2022/08/26 03:33:27;;;;;;;11.97;1.33;;;19.60;83.60;;;;;;4909408;29;20155;-69
2022/08/26 03:35:53;;;;;;;7.43;1.50;;;19.60;83.20;;;;;;4916479;29;20038;-69
2022/08/26 03:38:21;;;;;;;8.67;1.20;;;19.60;83.00;;;;;;4935660;29;20303;-69
2022/08/26 03:40:47;;;;;;;6.57;1.37;;;19.60;83.30;;;;;;4916780;29;20279;-69
2022/08/26 03:43:15;;;;;;;10.83;1.00;;;19.60;83.20;;;;;;4914345;29;20299;-69
2022/08/26 03:45:42;;;;;;;8.00;1.20;;;19.60;83.40;;;;;;4952984;28;20283;-69
2022/08/26 03:48:08;;;;;;;5.07;0.90;;;19.50;83.40;;;;;;4916419;29;20291;-69
2022/08/26 03:50:34;;;;;;;6.00;2.07;;;19.60;83.30;;;;;;4929534;29;20399;-69
2022/08/26 03:53:00;;;;;;;5.70;1.17;;;19.60;83.30;;;;;;4923558;29;20343;-69
2022/08/26 03:55:30;;;;;;;5.67;0.93;;;19.60;83.10;;;;;;4949547;29;20303;-69
2022/08/26 03:57:56;;;;;;;6.00;1.23;;;19.60;83.20;;;;;;4901861;28;20819;-69
2022/08/26 04:00:22;;;;;;;8.63;2.47;;;19.60;83.10;;;;;;4932774;29;20287;-69
2022/08/26 04:02:51;;;;;;;12.10;1.40;;;19.60;83.00;;;;;;4937906;28;20054;-69
2022/08/26 04:05:18;;;;;;;3.97;0.80;;;19.60;82.70;;;;;;4907130;28;20294;-69
2022/08/26 04:07:45;;;;;;;7.97;1.87;;;19.60;82.70;;;;;;4920681;28;20358;-69
2022/08/26 04:10:15;;;;;;;9.57;1.50;;;19.60;83.00;;;;;;4940528;29;20290;-67
2022/08/26 04:12:41;;;;;;;8.67;1.20;;;19.60;82.90;;;;;;4933598;29;20326;-67
2022/08/26 04:15:09;;;;;;;5.80;1.20;;;19.60;82.90;;;;;;4917371;29;20283;-67
2022/08/26 04:17:35;;;;;;;5.93;1.00;;;19.60;83.10;;;;;;4940166;29;20102;-67
2022/08/26 04:20:03;;;;;;;9.40;1.00;;;19.60;83.10;;;;;;4917905;29;20283;-68
2022/08/26 04:22:29;;;;;;;8.60;1.37;;;19.60;83.00;;;;;;4899185;28;20056;-68
2022/08/26 04:24:55;;;;;;;6.90;1.30;;;19.60;83.00;;;;;;4938083;29;20074;-68
2022/08/26 04:27:21;;;;;;;3.60;0.90;;;19.60;82.90;;;;;;4938378;29;20058;-68
2022/08/26 04:29:46;;;;;;;7.03;1.03;;;19.60;82.80;;;;;;4909031;29;20055;-68
2022/08/26 04:32:12;;;;;;;6.27;1.07;;;19.60;82.90;;;;;;4924105;29;20070;-68
2022/08/26 04:34:38;;;;;;;8.63;1.70;;;19.60;82.70;;;;;;4934825;29;20046;-68
2022/08/26 04:37:05;;;;;;;9.70;1.37;;;19.60;82.80;;;;;;4922186;28;20053;-68
2022/08/26 04:39:32;;;;;;;9.47;1.70;;;19.60;82.70;;;;;;4931878;28;20131;-68
2022/08/26 04:41:58;;;;;;;7.33;0.93;;;19.60;82.90;;;;;;4935454;29;20040;-68
2022/08/26 04:44:26;;;;;;;5.83;0.90;;;19.60;82.70;;;;;;4913902;28;20507;-68
2022/08/26 04:46:52;;;;;;;8.50;1.93;;;19.60;82.80;;;;;;4939094;29;20106;-68
2022/08/26 04:49:19;;;;;;;9.40;1.40;;;19.60;82.70;;;;;;4921463;29;20039;-68
2022/08/26 04:51:46;;;;;;;9.03;1.13;;;19.70;82.70;;;;;;4908453;29;20102;-69
2022/08/26 04:54:12;;;;;;;7.17;0.93;;;19.70;82.60;;;;;;4894257;29;20052;-69
2022/08/26 04:56:41;;;;;;;8.33;1.77;;;19.70;82.50;;;;;;4916976;28;20066;-69
2022/08/26 04:59:10;;;;;;;8.70;1.50;;;19.70;82.70;;;;;;4924976;29;20078;-69
2022/08/26 05:01:37;;;;;;;6.90;1.50;;;19.70;82.80;;;;;;4918164;29;20413;-69
2022/08/26 05:04:04;;;;;;;5.17;0.90;;;19.70;82.60;;;;;;4918425;29;20300;-69
2022/08/26 05:06:30;;;;;;;9.93;1.43;;;19.70;83.10;;;;;;4925092;29;20153;-69
2022/08/26 05:08:56;;;;;;;11.13;1.63;;;19.70;83.70;;;;;;4904240;29;20105;-69
2022/08/26 05:11:22;;;;;;;7.40;1.33;;;19.60;84.80;;;;;;4921148;29;20063;-69
2022/08/26 05:13:50;;;;;;;9.17;1.50;;;19.50;85.50;;;;;;4925725;29;20492;-70
2022/08/26 05:16:16;;;;;;;10.40;1.03;;;19.40;86.60;;;;;;4903935;29;20070;-69
2022/08/26 05:18:43;;;;;;;5.83;0.83;;;19.20;87.20;;;;;;4929029;28;20287;-70
2022/08/26 05:21:20;;;;;;;9.10;1.00;;;19.20;88.30;;;;;;4924471;28;20450;-70
2022/08/26 05:23:50;;;;;;;8.80;1.70;;;19.10;88.40;;;;;;4940271;28;20287;-70
2022/08/26 05:26:17;;;;;;;7.80;1.17;;;19.10;88.80;;;;;;4947271;29;20354;-70
2022/08/26 05:28:43;;;;;;;6.50;1.00;;;19.00;89.80;;;;;;4924449;28;20281;-70
2022/08/26 05:31:17;;;;;;;6.67;0.87;;;18.90;90.00;;;;;;4928176;29;20837;-70
2022/08/26 05:33:44;;;;;;;10.77;1.70;;;18.90;90.10;;;;;;4914379;28;20043;-70
2022/08/26 05:36:12;;;;;;;9.73;1.03;;;18.90;90.30;;;;;;4892613;29;20039;-70
2022/08/26 05:38:38;;;;;;;8.47;0.90;;;18.90;90.60;;;;;;4920094;29;20290;-70
2022/08/26 05:41:13;;;;;;;8.20;1.00;;;18.90;90.80;;;;;;4907449;29;20286;-70
2022/08/26 05:43:39;;;;;;;7.10;1.00;;;18.90;91.50;;;;;;4933665;28;20055;-70
2022/08/26 05:46:06;;;;;;;8.03;0.97;;;18.90;91.10;;;;;;4904665;29;20359;-70
2022/08/26 05:48:32;;;;;;;9.33;1.50;;;18.90;91.20;;;;;;4900236;29;20043;-70
2022/08/26 05:51:03;;;;;;;8.43;1.53;;;18.90;91.00;;;;;;4928070;29;20371;-69
2022/08/26 05:53:29;;;;;;;12.23;1.90;;;18.90;91.50;;;;;;4933705;29;20315;-69
2022/08/26 05:55:55;;;;;;;10.07;1.07;;;18.90;91.50;;;;;;4912250;29;21001;-70
2022/08/26 05:58:22;;;;;;;12.43;1.73;;;18.90;91.80;;;;;;4895801;29;20634;-69
2022/08/26 06:01:06;;;;;;;7.43;1.30;;;19.00;92.10;;;;;;4920591;29;20496;-69
2022/08/26 06:03:36;;;;;;;6.53;1.20;;;19.00;92.40;;;;;;4933944;29;20294;-69
2022/08/26 06:06:07;;;;;;;8.07;1.37;;;19.00;92.40;;;;;;4936562;28;20527;-69
2022/08/26 06:08:33;;;;;;;8.40;1.53;;;19.10;92.80;;;;;;4936916;28;20291;-69
2022/08/26 06:11:01;;;;;;;6.67;0.97;;;19.10;92.10;;;;;;4919984;28;20305;-70
2022/08/26 06:13:28;;;;;;;6.23;0.80;;;19.10;92.30;;;;;;4937205;28;20313;-69
2022/08/26 06:15:54;;;;;;;10.03;1.10;;;19.10;92.70;;;;;;4930395;29;20326;-69
2022/08/26 06:18:31;;;;;;;6.90;0.87;;;19.10;92.00;;;;;;4917302;28;20330;-69
2022/08/26 06:20:57;;;;;;;5.47;1.00;;;19.20;92.10;;;;;;4916843;28;20303;-69
2022/08/26 06:26:09;;;;;;;8.68;1.10;;;19.30;91.80;;;;;;4935016;28;20286;-70
2022/08/26 06:28:35;;;;;;;7.30;1.10;;;19.30;91.60;;;;;;4934024;28;20496;-69
2022/08/26 06:31:01;;;;;;;9.67;0.93;;;19.40;91.70;;;;;;4897191;28;20366;-70
2022/08/26 06:33:28;;;;;;;4.93;0.57;;;19.50;91.50;;;;;;4931216;28;20039;-70
2022/08/26 06:35:54;;;;;;;7.40;1.30;;;19.50;91.00;;;;;;4917995;28;20276;-69
2022/08/26 06:38:19;;;;;;;5.30;1.53;;;19.50;90.60;;;;;;4917047;28;20291;-69
2022/08/26 06:40:51;;;;;;;7.80;1.00;;;19.50;90.40;;;;;;4886823;29;20286;-69
2022/08/26 06:43:20;;;;;;;6.83;0.60;;;19.40;90.70;;;;;;4913893;28;20051;-69
2022/08/26 06:45:46;;;;;;;9.20;1.30;;;19.50;90.80;;;;;;4915252;28;20342;-69
2022/08/26 06:48:14;;;;;;;6.90;0.77;;;19.40;91.00;;;;;;4932967;28;20519;-69
2022/08/26 06:50:40;;;;;;;5.67;0.70;;;19.40;91.00;;;;;;4933819;28;20675;-68
2022/08/26 06:53:07;;;;;;;6.87;0.80;;;19.40;89.70;;;;;;4922248;28;20593;-68
2022/08/26 06:55:41;;;;;;;8.83;1.37;;;19.50;90.30;;;;;;4916036;28;20608;-68
2022/08/26 06:58:08;;;;;;;6.00;1.00;;;19.50;90.50;;;;;;4932131;28;20341;-68
2022/08/26 07:00:35;;;;;;;7.10;1.30;;;19.50;90.00;;;;;;4934698;28;20443;-68
2022/08/26 07:03:01;;;;;;;7.70;0.80;;;19.60;89.60;;;;;;4917240;28;20046;-68
2022/08/26 07:05:27;;;;;;;4.23;0.70;;;19.60;89.60;;;;;;4930951;28;20274;-69
2022/08/26 07:07:53;;;;;;;8.33;1.43;;;19.60;89.60;;;;;;4933472;28;20282;-68
2022/08/26 07:10:19;;;;;;;6.43;1.00;;;19.60;88.50;;;;;;4928151;28;20047;-68
2022/08/26 07:12:44;;;;;;;9.83;1.23;;;19.60;89.00;;;;;;4917725;28;20515;-68
2022/08/26 07:15:10;;;;;;;8.03;0.93;;;19.70;88.60;;;;;;4915614;28;20043;-68
2022/08/26 07:17:36;;;;;;;6.60;0.87;;;19.70;86.80;;;;;;4916933;28;20054;-68
2022/08/26 07:20:06;;;;;;;6.17;0.70;;;19.80;87.40;;;;;;4914664;29;20039;-68
2022/08/26 07:22:32;;;;;;;9.80;1.10;;;19.80;86.60;;;;;;4913798;29;20057;-68
2022/08/26 07:24:58;;;;;;;5.23;0.60;;;19.90;87.00;;;;;;4929617;29;20043;-68
2022/08/26 07:27:23;;;;;;;6.13;1.13;;;19.90;87.00;;;;;;4912821;29;20070;-68
2022/08/26 07:29:49;;;;;;;10.03;1.13;;;20.00;86.00;;;;;;4916522;29;20047;-68
2022/08/26 07:32:18;;;;;;;7.63;0.90;;;20.00;87.30;;;;;;4902570;28;20040;-68
2022/08/26 07:34:44;;;;;;;4.50;0.67;;;20.10;86.00;;;;;;4934791;29;20035;-68
2022/08/26 07:37:10;;;;;;;7.23;1.13;;;20.20;86.60;;;;;;4932828;29;20098;-68
2022/08/26 07:39:36;;;;;;;4.57;0.60;;;20.20;86.60;;;;;;4912588;28;20039;-68
2022/08/26 07:42:05;;;;;;;6.13;0.80;;;20.30;86.50;;;;;;4916725;28;20121;-69
2022/08/26 07:44:30;;;;;;;5.90;1.07;;;20.30;85.10;;;;;;4931957;29;20110;-68
2022/08/26 07:46:56;;;;;;;3.60;0.70;;;20.50;83.90;;;;;;4900914;29;20106;-68
2022/08/26 07:49:23;;;;;;;5.70;0.70;;;20.60;83.80;;;;;;4930511;29;20047;-68
2022/08/26 07:51:49;;;;;;;4.80;0.70;;;20.80;83.20;;;;;;4933090;29;20051;-68
2022/08/26 07:54:15;;;;;;;7.83;0.83;;;20.90;82.70;;;;;;4898718;28;20050;-69
2022/08/26 07:56:41;;;;;;;6.40;0.73;;;20.90;79.80;;;;;;4919168;29;20438;-69
2022/08/26 07:59:07;;;;;;;3.13;0.40;;;20.90;81.30;;;;;;4914132;29;20291;-69
2022/08/26 08:01:33;;;;;;;5.40;0.97;;;20.80;79.80;;;;;;4918021;29;20047;-69
2022/08/26 08:03:59;;;;;;;4.60;0.40;;;20.80;80.60;;;;;;4931207;28;20051;-68
2022/08/26 08:06:25;;;;;;;8.40;0.80;;;20.90;80.70;;;;;;4901334;29;20039;-69
2022/08/26 08:08:51;;;;;;;3.27;0.80;;;20.90;79.70;;;;;;4914483;29;20146;-69
2022/08/26 08:11:20;;;;;;;5.20;0.50;;;21.00;80.90;;;;;;4898627;28;20070;-68
2022/08/26 08:13:47;;;;;;;4.90;0.40;;;21.00;80.10;;;;;;4911791;29;20047;-69
2022/08/26 08:16:13;;;;;;;3.60;0.47;;;20.80;78.60;;;;;;4932062;28;20046;-69
2022/08/26 08:18:39;;;;;;;2.97;0.40;;;20.70;79.60;;;;;;4903092;28;20488;-67
2022/08/26 08:21:05;;;;;;;5.37;0.83;;;20.50;79.50;;;;;;4925024;29;20464;-68
2022/08/26 08:23:31;;;;;;;5.43;0.63;;;20.50;80.30;;;;;;4926935;28;20051;-68
2022/08/26 08:26:02;;;;;;;4.53;0.70;;;20.50;81.00;;;;;;4929517;28;20044;-69
2022/08/26 08:28:28;;;;;;;4.37;0.50;;;20.50;80.30;;;;;;4905066;28;20695;-69
2022/08/26 08:30:54;;;;;;;4.97;1.03;;;20.50;80.70;;;;;;4905101;29;20039;-67
2022/08/26 08:33:21;;;;;;;5.43;0.33;;;20.60;81.00;;;;;;4927949;28;20574;-67
2022/08/26 08:35:48;;;;;;;5.43;0.57;;;20.60;81.00;;;;;;4898856;29;20058;-67
2022/08/26 08:38:14;;;;;;;7.50;0.60;;;20.60;81.10;;;;;;4912252;28;20411;-67
2022/08/26 08:40:42;;;;;;;3.90;0.30;;;20.70;80.60;;;;;;4905701;29;20050;-67
2022/08/26 08:43:31;;;;;;;5.03;0.40;;;20.80;80.40;;;;;;4910546;28;20074;-67
2022/08/26 08:46:03;;;;;;;4.73;0.87;;;20.80;80.70;;;;;;4925711;28;20066;-67
2022/08/26 08:48:33;;;;;;;4.87;0.87;;;20.90;80.40;;;;;;4926944;29;20210;-67
2022/08/26 08:51:12;;;;;;;4.27;0.87;;;20.90;80.00;;;;;;4926657;29;20293;-67
2022/08/26 08:53:44;;;;;;;5.87;0.40;;;20.80;79.90;;;;;;4928063;29;20600;-67
2022/08/26 08:56:22;;;;;;;3.97;0.50;;;20.80;80.00;;;;;;4928563;28;20044;-69
2022/08/26 08:59:14;;;;;;;6.83;1.30;;;20.70;78.10;;;;;;4929685;29;20050;-69
2022/08/26 09:02:17;;;;;;;7.53;0.77;;;20.70;79.20;;;;;;4920718;29;20058;-69
2022/08/26 09:04:50;;;;;;;4.00;0.70;;;20.70;79.20;;;;;;4933720;29;20126;-69
2022/08/26 09:07:22;;;;;;;2.73;0.40;;;20.70;79.90;;;;;;4912938;29;20044;-69
2022/08/26 09:09:56;;;;;;;3.03;0.40;;;20.70;79.30;;;;;;4953172;28;20058;-69
2022/08/26 09:12:24;;;;;;;5.10;0.30;;;20.80;78.90;;;;;;4932289;29;20058;-67
2022/08/26 09:14:55;;;;;;;4.73;0.60;;;20.80;78.80;;;;;;4915374;29;20039;-66
2022/08/26 09:17:39;;;;;;;4.63;0.50;;;20.90;78.90;;;;;;4929935;29;20050;-66
2022/08/26 09:20:12;;;;;;;5.47;0.80;;;20.90;79.10;;;;;;4926388;28;20090;-66
2022/08/26 09:22:39;;;;;;;8.50;1.50;;;21.00;78.50;;;;;;4943893;28;20047;-67
2022/08/26 09:25:09;;;;;;;4.10;0.40;;;21.00;78.00;;;;;;4909989;29;20055;-69
2022/08/26 09:27:50;;;;;;;4.67;0.63;;;21.00;77.50;;;;;;4948894;28;20045;-68
2022/08/26 09:30:29;;;;;;;3.77;0.87;;;20.90;76.70;;;;;;4946394;28;20035;-69
2022/08/26 09:33:04;;;;;;;4.10;0.50;;;20.80;77.10;;;;;;4930677;29;20079;-68
2022/08/26 09:35:37;;;;;;;2.57;0.53;;;20.70;77.40;;;;;;4916053;29;20042;-67
2022/08/26 09:38:22;;;;;;;2.40;0.20;;;20.70;77.20;;;;;;4931412;28;20048;-68
2022/08/26 09:41:00;;;;;;;3.72;0.63;;;20.70;77.10;;;;;;4922493;29;20104;-67
2022/08/26 09:43:27;;;;;;;7.07;0.70;;;20.80;77.60;;;;;;4927337;28;20054;-68
2022/08/26 09:46:17;;;;;;;8.00;0.60;;;20.80;77.10;;;;;;4932152;28;20080;-67
2022/08/26 09:48:43;;;;;;;2.83;0.47;;;20.90;76.90;;;;;;4911798;29;20219;-68
2022/08/26 09:51:25;;;;;;;3.10;0.50;;;21.00;76.80;;;;;;4891030;29;21214;-67
2022/08/26 09:53:59;;;;;;;6.00;0.70;;;21.10;75.80;;;;;;4933406;29;20781;-68
2022/08/26 09:56:33;;;;;;;6.18;0.50;;;21.20;75.60;;;;;;4934116;28;20074;-67
2022/08/26 09:59:00;;;;;;;5.83;0.33;;;21.20;75.70;;;;;;4922732;29;20118;-69
2022/08/26 10:01:36;;;;;;;2.80;0.60;;;21.30;75.80;;;;;;4917226;28;20039;-69
2022/08/26 10:04:19;;;;;;;4.03;0.87;;;21.30;74.80;;;;;;4934318;29;20456;-69
2022/08/26 10:06:57;;;;;;;3.73;0.63;;;21.30;74.90;;;;;;4935187;29;20039;-68
2022/08/26 10:09:24;;;;;;;5.23;0.70;;;21.30;74.60;;;;;;4933736;28;20101;-68
2022/08/26 10:11:57;;;;;;;3.80;0.47;;;21.30;74.50;;;;;;4900684;29;20043;-68
2022/08/26 10:15:03;;;;;;;3.83;0.30;;;21.30;74.50;;;;;;4917845;29;20051;-69
2022/08/26 10:17:44;;;;;;;3.50;0.63;;;21.30;74.10;;;;;;4933638;28;20051;-69
2022/08/26 10:20:27;;;;;;;4.33;0.30;;;21.40;73.60;;;;;;4918426;29;20456;-70
2022/08/26 10:22:53;;;;;;;5.13;0.40;;;21.60;74.20;;;;;;4938699;29;20155;-68
2022/08/26 10:26:04;;;;;;;6.23;0.77;;;21.60;73.50;;;;;;4936907;28;20126;-69
2022/08/26 10:28:55;;;;;;;3.70;0.40;;;21.60;73.00;;;;;;4926774;28;20086;-69
2022/08/26 10:31:32;;;;;;;5.80;0.40;;;21.50;73.70;;;;;;4936660;29;20043;-67
2022/08/26 10:33:59;;;;;;;5.43;0.70;;;21.40;72.80;;;;;;4923988;28;20122;-68
2022/08/26 10:39:30;;;;;;;6.50;0.70;;;20.90;73.80;;;;;;4920003;29;20032;-69
2022/08/26 10:42:02;;;;;;;5.83;0.40;;;20.90;74.40;;;;;;4940299;28;20035;-70
2022/08/26 10:44:32;;;;;;;3.23;0.50;;;20.80;74.70;;;;;;4918972;29;20074;-69
2022/08/26 10:47:04;;;;;;;4.47;0.90;;;20.70;74.10;;;;;;4931949;29;20046;-68
2022/08/26 10:49:30;;;;;;;2.83;0.50;;;20.70;74.60;;;;;;4931949;29;20047;-68
2022/08/26 10:52:21;;;;;;;4.07;0.73;;;20.60;74.20;;;;;;4920822;29;20047;-69
2022/08/26 10:55:16;;;;;;;5.13;0.60;;;20.60;74.70;;;;;;4927696;28;20042;-68
2022/08/26 10:58:02;;;;;;;5.72;0.77;;;20.70;74.40;;;;;;4934249;28;20056;-68
2022/08/26 11:03:30;;;;;;;4.27;0.57;;;21.00;74.10;;;;;;4934600;29;20055;-68
2022/08/26 11:06:18;;;;;;;3.90;0.70;;;21.20;73.50;;;;;;4950159;28;20083;-67
2022/08/26 11:09:11;;;;;;;8.03;0.90;;;21.20;72.10;;;;;;4935667;28;20484;-66
2022/08/26 11:11:40;;;;;;;3.97;0.50;;;21.20;72.20;;;;;;4926825;29;20051;-66
2022/08/26 11:14:18;;;;;;;6.80;0.97;;;21.30;72.50;;;;;;4930980;28;20049;-66
2022/08/26 11:16:52;;;;;;;4.50;0.83;;;21.40;72.00;;;;;;4930331;29;20039;-67
2022/08/26 11:19:37;;;;;;;3.25;0.45;;;21.60;71.50;;;;;;4918299;29;20031;-67
2022/08/26 11:22:27;;;;;;;3.88;0.40;;;21.60;71.20;;;;;;4919011;28;20511;-67
2022/08/26 11:24:56;;;;;;;4.80;0.60;;;21.60;70.60;;;;;;4935274;29;20040;-67
2022/08/26 11:27:24;;;;;;;3.43;0.40;;;21.60;71.00;;;;;;4913325;29;20039;-68
2022/08/26 11:30:12;;;;;;;1.33;0.20;;;21.60;70.60;;;;;;4917633;29;20047;-68
2022/08/26 11:32:38;;;;;;;1.63;0.50;;;21.60;70.10;;;;;;4934506;29;20048;-69
2022/08/26 11:35:12;;;;;;;6.03;0.60;;;21.70;70.60;;;;;;4915276;28;20654;-68
2022/08/26 11:37:51;;;;;;;3.55;0.47;;;21.70;70.30;;;;;;4936477;29;20106;-66
2022/08/26 11:40:25;;;;;;;3.43;0.40;;;21.60;69.80;;;;;;4916826;29;21220;-67
2022/08/26 11:42:55;;;;;;;3.65;0.85;;;21.60;70.00;;;;;;4934269;28;20216;-68
2022/08/26 11:45:31;;;;;;;3.87;0.50;;;21.60;70.00;;;;;;4917782;29;20111;-68
2022/08/26 11:47:57;;;;;;;5.70;0.93;;;21.60;70.10;;;;;;4906277;28;20043;-68
2022/08/26 11:50:26;;;;;;;1.70;0.50;;;21.60;70.40;;;;;;4886592;29;20563;-66
2022/08/26 11:53:00;;;;;;;2.87;0.50;;;21.60;70.10;;;;;;4915845;28;20054;-66
2022/08/26 11:55:28;;;;;;;5.70;1.25;;;21.70;69.80;;;;;;4921613;28;20137;-68
2022/08/26 11:57:56;;;;;;;3.93;0.50;;;21.70;69.60;;;;;;4923694;28;20122;-67
2022/08/26 12:00:54;;;;;;;3.07;0.80;;;21.80;69.50;;;;;;4913850;29;20086;-67
2022/08/26 12:03:24;;;;;;;5.10;0.40;;;21.90;69.30;;;;;;4915769;29;20047;-67
2022/08/26 12:05:51;;;;;;;5.43;0.43;;;21.90;68.40;;;;;;4935968;28;20046;-67
2022/08/26 12:08:22;;;;;;;1.77;0.30;;;21.80;68.10;;;;;;4911663;29;20070;-67
2022/08/26 12:10:48;;;;;;;1.77;0.30;;;21.80;68.50;;;;;;4934878;28;20054;-67
2022/08/26 12:13:23;;;;;;;6.00;0.50;;;21.80;68.80;;;;;;4939399;28;20046;-66
2022/08/26 12:15:56;;;;;;;;;;;21.80;68.50;;;;;;4923085;28;20071;-67
2022/08/26 12:18:25;;;;;;;4.87;0.60;;;21.80;68.70;;;;;;4906711;29;19925;-68
2022/08/26 12:20:54;;;;;;;5.60;0.67;;;21.90;69.20;;;;;;4918498;29;20176;-68
2022/08/26 12:23:29;;;;;;;3.33;0.40;;;22.00;68.90;;;;;;4886139;29;20042;-67
2022/08/26 12:26:12;;;;;;;2.80;0.40;;;22.00;68.40;;;;;;4930808;28;20074;-68
2022/08/26 12:29:03;;;;;;;4.90;0.60;;;22.10;67.50;;;;;;4911124;28;20047;-68
2022/08/26 12:31:33;;;;;;;2.90;0.60;;;22.00;67.50;;;;;;4903764;28;20067;-68
2022/08/26 12:34:01;;;;;;;2.87;0.30;;;22.00;67.40;;;;;;4906539;28;20050;-68
2022/08/26 12:36:30;;;;;;;4.53;0.80;;;21.90;66.90;;;;;;4931168;29;20512;-68
2022/08/26 12:39:05;;;;;;;2.77;0.40;;;21.90;66.70;;;;;;4930824;29;20355;-68
2022/08/26 12:41:56;;;;;;;2.87;0.47;;;22.00;66.90;;;;;;4926071;28;20496;-68
2022/08/26 12:44:58;;;;;;;3.30;0.70;;;22.10;65.80;;;;;;4924227;28;20071;-68
2022/08/26 12:47:29;;;;;;;3.57;0.40;;;22.30;66.20;;;;;;4924856;29;20121;-68
2022/08/26 12:50:08;;;;;;;3.10;0.37;;;22.40;65.80;;;;;;4910815;28;20039;-68
2022/08/26 12:52:50;;;;;;;7.10;0.70;;;22.30;65.00;;;;;;4930992;29;20050;-67
2022/08/26 12:55:22;;;;;;;5.93;0.47;;;22.20;65.60;;;;;;4931764;29;20043;-68
2022/08/26 12:57:48;;;;;;;3.30;0.57;;;22.00;65.70;;;;;;4931836;29;20063;-68
2022/08/26 13:00:28;;;;;;;2.90;0.83;;;21.80;66.30;;;;;;4932613;29;20040;-68
2022/08/26 13:02:53;;;;;;;5.33;0.40;;;21.70;66.70;;;;;;4918473;29;20039;-68
2022/08/26 13:05:26;;;;;;;4.23;0.43;;;21.60;66.90;;;;;;4900171;28;20071;-68
2022/08/26 13:08:09;;;;;;;2.23;0.43;;;21.40;67.10;;;;;;4928442;28;20055;-68
2022/08/26 13:10:37;;;;;;;3.23;0.50;;;21.40;66.30;;;;;;4934186;28;20082;-68
2022/08/26 13:13:03;;;;;;;3.30;0.97;;;21.30;66.90;;;;;;4931261;29;20456;-68